sensor_id;sensor_type;location;lat;lon;timestamp;P1;durP1;ratioP1;P2;durP2;ratioP2
76332;SDS011;71254;53.010;6.508;2024-02-14T00:00:36;12.63;;;9.77;;
76332;SDS011;71254;53.010;6.508;2024-02-14T00:03:02;12.93;;;9.38;;
76332;SDS011;71254;53.010;6.508;2024-02-14T00:05:28;14.13;;;10.65;;
76332;SDS011;71254;53.010;6.508;2024-02-14T00:07:56;15.38;;;10.15;;
76332;SDS011;71254;53.010;6.508;2024-02-14T00:10:28;14.93;;;10.23;;
76332;SDS011;71254;53.010;6.508;2024-02-14T00:12:54;16.38;;;11.10;;
76332;SDS011;71254;53.010;6.508;2024-02-14T00:15:22;14.80;;;11.30;;
76332;SDS011;71254;53.010;6.508;2024-02-14T00:17:48;14.40;;;11.52;;
76332;SDS011;71254;53.010;6.508;2024-02-14T00:20:14;15.32;;;11.38;;
76332;SDS011;71254;53.010;6.508;2024-02-14T00:22:40;15.45;;;11.40;;
76332;SDS011;71254;53.010;6.508;2024-02-14T00:25:06;14.57;;;11.73;;
76332;SDS011;71254;53.010;6.508;2024-02-14T00:27:32;15.68;;;11.23;;
76332;SDS011;71254;53.010;6.508;2024-02-14T00:29:58;16.13;;;12.23;;
76332;SDS011;71254;53.010;6.508;2024-02-14T00:32:24;16.52;;;12.63;;
76332;SDS011;71254;53.010;6.508;2024-02-14T00:34:52;17.45;;;12.05;;
76332;SDS011;71254;53.010;6.508;2024-02-14T00:37:19;14.02;;;11.00;;
76332;SDS011;71254;53.010;6.508;2024-02-14T00:39:48;14.63;;;11.82;;
76332;SDS011;71254;53.010;6.508;2024-02-14T00:42:15;15.50;;;12.18;;
76332;SDS011;71254;53.010;6.508;2024-02-14T00:44:41;15.48;;;12.02;;
76332;SDS011;71254;53.010;6.508;2024-02-14T00:47:07;14.45;;;12.48;;
76332;SDS011;71254;53.010;6.508;2024-02-14T00:49:35;16.70;;;12.43;;
76332;SDS011;71254;53.010;6.508;2024-02-14T00:52:02;14.90;;;12.13;;
76332;SDS011;71254;53.010;6.508;2024-02-14T00:54:28;14.82;;;12.30;;
76332;SDS011;71254;53.010;6.508;2024-02-14T00:56:54;18.08;;;12.43;;
76332;SDS011;71254;53.010;6.508;2024-02-14T00:59:19;15.68;;;12.27;;
76332;SDS011;71254;53.010;6.508;2024-02-14T01:01:45;14.73;;;11.40;;
76332;SDS011;71254;53.010;6.508;2024-02-14T01:04:10;16.02;;;12.30;;
76332;SDS011;71254;53.010;6.508;2024-02-14T01:06:36;16.55;;;12.57;;
76332;SDS011;71254;53.010;6.508;2024-02-14T01:09:02;14.63;;;12.35;;
76332;SDS011;71254;53.010;6.508;2024-02-14T01:11:30;14.27;;;11.60;;
76332;SDS011;71254;53.010;6.508;2024-02-14T01:13:58;14.35;;;10.93;;
76332;SDS011;71254;53.010;6.508;2024-02-14T01:16:24;13.27;;;11.65;;
76332;SDS011;71254;53.010;6.508;2024-02-14T01:18:50;13.25;;;11.30;;
76332;SDS011;71254;53.010;6.508;2024-02-14T01:21:16;14.70;;;11.27;;
76332;SDS011;71254;53.010;6.508;2024-02-14T01:23:45;14.05;;;11.68;;
76332;SDS011;71254;53.010;6.508;2024-02-14T01:26:10;13.30;;;11.27;;
76332;SDS011;71254;53.010;6.508;2024-02-14T01:28:36;12.68;;;10.20;;
76332;SDS011;71254;53.010;6.508;2024-02-14T01:31:01;14.10;;;10.32;;
76332;SDS011;71254;53.010;6.508;2024-02-14T01:33:27;12.23;;;10.20;;
76332;SDS011;71254;53.010;6.508;2024-02-14T01:35:55;11.88;;;9.93;;
76332;SDS011;71254;53.010;6.508;2024-02-14T01:38:24;12.05;;;9.65;;
76332;SDS011;71254;53.010;6.508;2024-02-14T01:40:50;10.45;;;9.10;;
76332;SDS011;71254;53.010;6.508;2024-02-14T01:43:15;11.57;;;9.10;;
76332;SDS011;71254;53.010;6.508;2024-02-14T01:45:41;11.63;;;9.70;;
76332;SDS011;71254;53.010;6.508;2024-02-14T01:48:06;11.23;;;8.95;;
76332;SDS011;71254;53.010;6.508;2024-02-14T01:50:34;9.70;;;8.60;;
76332;SDS011;71254;53.010;6.508;2024-02-14T01:53:00;9.50;;;8.52;;
76332;SDS011;71254;53.010;6.508;2024-02-14T01:55:27;11.70;;;9.65;;
76332;SDS011;71254;53.010;6.508;2024-02-14T01:57:53;11.27;;;8.77;;
76332;SDS011;71254;53.010;6.508;2024-02-14T02:00:19;10.23;;;8.75;;
76332;SDS011;71254;53.010;6.508;2024-02-14T02:02:45;9.43;;;8.50;;
76332;SDS011;71254;53.010;6.508;2024-02-14T02:05:14;14.23;;;9.45;;
76332;SDS011;71254;53.010;6.508;2024-02-14T02:07:46;10.88;;;8.93;;
76332;SDS011;71254;53.010;6.508;2024-02-14T02:10:16;10.38;;;8.93;;
76332;SDS011;71254;53.010;6.508;2024-02-14T02:12:42;9.55;;;7.93;;
76332;SDS011;71254;53.010;6.508;2024-02-14T02:15:08;9.55;;;8.02;;
76332;SDS011;71254;53.010;6.508;2024-02-14T02:17:39;9.57;;;7.70;;
76332;SDS011;71254;53.010;6.508;2024-02-14T02:20:05;9.00;;;8.10;;
76332;SDS011;71254;53.010;6.508;2024-02-14T02:22:34;12.18;;;8.43;;
76332;SDS011;71254;53.010;6.508;2024-02-14T02:25:02;9.20;;;8.05;;
76332;SDS011;71254;53.010;6.508;2024-02-14T02:27:32;9.07;;;7.68;;
76332;SDS011;71254;53.010;6.508;2024-02-14T02:30:00;10.95;;;7.78;;
76332;SDS011;71254;53.010;6.508;2024-02-14T02:32:26;9.15;;;8.10;;
76332;SDS011;71254;53.010;6.508;2024-02-14T02:34:51;9.65;;;8.25;;
76332;SDS011;71254;53.010;6.508;2024-02-14T02:37:18;8.93;;;7.80;;
76332;SDS011;71254;53.010;6.508;2024-02-14T02:39:44;9.60;;;7.72;;
76332;SDS011;71254;53.010;6.508;2024-02-14T02:42:09;8.95;;;7.90;;
76332;SDS011;71254;53.010;6.508;2024-02-14T02:44:35;9.02;;;7.80;;
76332;SDS011;71254;53.010;6.508;2024-02-14T02:47:03;8.88;;;7.75;;
76332;SDS011;71254;53.010;6.508;2024-02-14T02:49:28;9.75;;;7.72;;
76332;SDS011;71254;53.010;6.508;2024-02-14T02:51:54;8.52;;;7.32;;
76332;SDS011;71254;53.010;6.508;2024-02-14T02:54:20;8.43;;;7.53;;
76332;SDS011;71254;53.010;6.508;2024-02-14T02:56:51;9.13;;;6.80;;
76332;SDS011;71254;53.010;6.508;2024-02-14T02:59:16;9.77;;;7.40;;
76332;SDS011;71254;53.010;6.508;2024-02-14T03:01:42;9.45;;;7.25;;
76332;SDS011;71254;53.010;6.508;2024-02-14T03:04:09;9.13;;;7.55;;
76332;SDS011;71254;53.010;6.508;2024-02-14T03:06:35;9.05;;;7.32;;
76332;SDS011;71254;53.010;6.508;2024-02-14T03:09:01;7.90;;;7.10;;
76332;SDS011;71254;53.010;6.508;2024-02-14T03:11:27;8.20;;;6.80;;
76332;SDS011;71254;53.010;6.508;2024-02-14T03:13:53;8.73;;;7.03;;
76332;SDS011;71254;53.010;6.508;2024-02-14T03:16:18;8.40;;;6.78;;
76332;SDS011;71254;53.010;6.508;2024-02-14T03:18:44;7.32;;;6.40;;
76332;SDS011;71254;53.010;6.508;2024-02-14T03:21:13;8.23;;;6.43;;
76332;SDS011;71254;53.010;6.508;2024-02-14T03:23:38;8.43;;;6.72;;
76332;SDS011;71254;53.010;6.508;2024-02-14T03:26:04;9.93;;;7.40;;
76332;SDS011;71254;53.010;6.508;2024-02-14T03:28:32;7.75;;;6.40;;
76332;SDS011;71254;53.010;6.508;2024-02-14T03:31:04;7.53;;;5.95;;
76332;SDS011;71254;53.010;6.508;2024-02-14T03:33:30;8.98;;;6.88;;
76332;SDS011;71254;53.010;6.508;2024-02-14T03:35:58;10.25;;;7.22;;
76332;SDS011;71254;53.010;6.508;2024-02-14T03:38:25;9.02;;;6.80;;
76332;SDS011;71254;53.010;6.508;2024-02-14T03:43:19;9.48;;;6.90;;
76332;SDS011;71254;53.010;6.508;2024-02-14T03:45:51;9.82;;;7.10;;
76332;SDS011;71254;53.010;6.508;2024-02-14T03:48:17;9.55;;;6.82;;
76332;SDS011;71254;53.010;6.508;2024-02-14T03:50:42;8.55;;;6.93;;
76332;SDS011;71254;53.010;6.508;2024-02-14T03:53:10;7.95;;;6.05;;
76332;SDS011;71254;53.010;6.508;2024-02-14T03:55:42;9.25;;;6.68;;
76332;SDS011;71254;53.010;6.508;2024-02-14T03:58:10;8.32;;;6.40;;
76332;SDS011;71254;53.010;6.508;2024-02-14T04:00:40;8.65;;;6.45;;
76332;SDS011;71254;53.010;6.508;2024-02-14T04:03:05;8.90;;;6.65;;
76332;SDS011;71254;53.010;6.508;2024-02-14T04:05:32;7.22;;;6.47;;
76332;SDS011;71254;53.010;6.508;2024-02-14T04:08:00;8.95;;;6.70;;
76332;SDS011;71254;53.010;6.508;2024-02-14T04:10:25;10.77;;;6.90;;
76332;SDS011;71254;53.010;6.508;2024-02-14T04:12:51;9.18;;;6.78;;
76332;SDS011;71254;53.010;6.508;2024-02-14T04:15:16;8.40;;;6.35;;
76332;SDS011;71254;53.010;6.508;2024-02-14T04:17:42;11.30;;;7.13;;
76332;SDS011;71254;53.010;6.508;2024-02-14T04:20:08;10.68;;;7.43;;
76332;SDS011;71254;53.010;6.508;2024-02-14T04:22:34;10.38;;;7.03;;
76332;SDS011;71254;53.010;6.508;2024-02-14T04:25:02;9.68;;;7.38;;
76332;SDS011;71254;53.010;6.508;2024-02-14T04:27:28;10.20;;;7.40;;
76332;SDS011;71254;53.010;6.508;2024-02-14T04:29:57;10.43;;;7.07;;
76332;SDS011;71254;53.010;6.508;2024-02-14T04:32:23;10.33;;;7.20;;
76332;SDS011;71254;53.010;6.508;2024-02-14T04:34:49;10.77;;;7.35;;
76332;SDS011;71254;53.010;6.508;2024-02-14T04:37:15;11.23;;;7.93;;
76332;SDS011;71254;53.010;6.508;2024-02-14T04:39:43;10.05;;;7.28;;
76332;SDS011;71254;53.010;6.508;2024-02-14T04:42:09;11.25;;;7.88;;
76332;SDS011;71254;53.010;6.508;2024-02-14T04:44:41;11.40;;;7.45;;
76332;SDS011;71254;53.010;6.508;2024-02-14T04:47:13;9.90;;;7.05;;
76332;SDS011;71254;53.010;6.508;2024-02-14T04:49:39;10.63;;;7.53;;
76332;SDS011;71254;53.010;6.508;2024-02-14T04:52:05;8.48;;;6.40;;
76332;SDS011;71254;53.010;6.508;2024-02-14T04:54:32;9.63;;;6.55;;
76332;SDS011;71254;53.010;6.508;2024-02-14T04:56:58;6.85;;;5.72;;
76332;SDS011;71254;53.010;6.508;2024-02-14T04:59:23;7.25;;;5.82;;
76332;SDS011;71254;53.010;6.508;2024-02-14T05:01:49;8.27;;;5.80;;
76332;SDS011;71254;53.010;6.508;2024-02-14T05:04:16;7.88;;;5.53;;
76332;SDS011;71254;53.010;6.508;2024-02-14T05:06:42;8.77;;;6.40;;
76332;SDS011;71254;53.010;6.508;2024-02-14T05:09:08;7.57;;;5.55;;
76332;SDS011;71254;53.010;6.508;2024-02-14T05:11:36;6.75;;;4.97;;
76332;SDS011;71254;53.010;6.508;2024-02-14T05:14:02;6.95;;;5.25;;
76332;SDS011;71254;53.010;6.508;2024-02-14T05:16:28;6.85;;;5.80;;
76332;SDS011;71254;53.010;6.508;2024-02-14T05:18:54;8.30;;;5.97;;
76332;SDS011;71254;53.010;6.508;2024-02-14T05:21:20;9.45;;;6.43;;
76332;SDS011;71254;53.010;6.508;2024-02-14T05:23:46;8.23;;;6.03;;
76332;SDS011;71254;53.010;6.508;2024-02-14T05:26:12;7.70;;;6.40;;
76332;SDS011;71254;53.010;6.508;2024-02-14T05:28:38;8.30;;;6.55;;
76332;SDS011;71254;53.010;6.508;2024-02-14T05:31:04;6.97;;;5.55;;
76332;SDS011;71254;53.010;6.508;2024-02-14T05:33:33;7.95;;;6.18;;
76332;SDS011;71254;53.010;6.508;2024-02-14T05:35:59;6.63;;;5.82;;
76332;SDS011;71254;53.010;6.508;2024-02-14T05:38:27;7.18;;;5.60;;
76332;SDS011;71254;53.010;6.508;2024-02-14T05:40:54;8.38;;;5.15;;
76332;SDS011;71254;53.010;6.508;2024-02-14T05:43:20;8.60;;;5.93;;
76332;SDS011;71254;53.010;6.508;2024-02-14T05:45:47;6.70;;;5.30;;
76332;SDS011;71254;53.010;6.508;2024-02-14T05:48:12;6.13;;;5.28;;
76332;SDS011;71254;53.010;6.508;2024-02-14T05:50:39;7.43;;;5.63;;
76332;SDS011;71254;53.010;6.508;2024-02-14T05:53:05;6.97;;;5.28;;
76332;SDS011;71254;53.010;6.508;2024-02-14T05:55:31;7.40;;;5.63;;
76332;SDS011;71254;53.010;6.508;2024-02-14T05:57:57;9.70;;;6.28;;
76332;SDS011;71254;53.010;6.508;2024-02-14T06:00:31;9.77;;;6.90;;
76332;SDS011;71254;53.010;6.508;2024-02-14T06:02:57;9.10;;;7.00;;
76332;SDS011;71254;53.010;6.508;2024-02-14T06:05:22;11.50;;;8.70;;
76332;SDS011;71254;53.010;6.508;2024-02-14T06:07:48;11.50;;;8.52;;
76332;SDS011;71254;53.010;6.508;2024-02-14T06:10:15;15.07;;;9.23;;
76332;SDS011;71254;53.010;6.508;2024-02-14T06:12:41;17.10;;;9.40;;
76332;SDS011;71254;53.010;6.508;2024-02-14T06:15:08;15.00;;;9.77;;
76332;SDS011;71254;53.010;6.508;2024-02-14T06:17:34;16.23;;;9.60;;
76332;SDS011;71254;53.010;6.508;2024-02-14T06:20:00;16.20;;;10.23;;
76332;SDS011;71254;53.010;6.508;2024-02-14T06:22:30;16.85;;;10.43;;
76332;SDS011;71254;53.010;6.508;2024-02-14T06:24:57;19.10;;;10.38;;
76332;SDS011;71254;53.010;6.508;2024-02-14T06:27:22;22.17;;;10.88;;
76332;SDS011;71254;53.010;6.508;2024-02-14T06:29:48;22.05;;;10.70;;
76332;SDS011;71254;53.010;6.508;2024-02-14T06:32:14;20.33;;;10.43;;
76332;SDS011;71254;53.010;6.508;2024-02-14T06:34:40;20.90;;;10.70;;
76332;SDS011;71254;53.010;6.508;2024-02-14T06:37:05;25.42;;;10.88;;
76332;SDS011;71254;53.010;6.508;2024-02-14T06:39:31;26.42;;;11.80;;
76332;SDS011;71254;53.010;6.508;2024-02-14T06:41:57;28.63;;;11.93;;
76332;SDS011;71254;53.010;6.508;2024-02-14T06:44:25;33.60;;;12.95;;
76332;SDS011;71254;53.010;6.508;2024-02-14T06:46:53;29.95;;;12.43;;
76332;SDS011;71254;53.010;6.508;2024-02-14T06:49:22;38.97;;;13.23;;
76332;SDS011;71254;53.010;6.508;2024-02-14T06:51:51;41.03;;;13.57;;
76332;SDS011;71254;53.010;6.508;2024-02-14T06:54:19;41.80;;;15.32;;
76332;SDS011;71254;53.010;6.508;2024-02-14T06:56:45;37.53;;;14.48;;
76332;SDS011;71254;53.010;6.508;2024-02-14T06:59:19;35.20;;;13.32;;
76332;SDS011;71254;53.010;6.508;2024-02-14T07:01:45;41.45;;;13.57;;
76332;SDS011;71254;53.010;6.508;2024-02-14T07:04:11;38.72;;;12.27;;
76332;SDS011;71254;53.010;6.508;2024-02-14T07:06:36;36.78;;;12.65;;
76332;SDS011;71254;53.010;6.508;2024-02-14T07:09:02;38.38;;;12.38;;
76332;SDS011;71254;53.010;6.508;2024-02-14T07:11:31;40.42;;;12.80;;
76332;SDS011;71254;53.010;6.508;2024-02-14T07:13:56;36.13;;;11.70;;
76332;SDS011;71254;53.010;6.508;2024-02-14T07:16:22;38.90;;;12.20;;
76332;SDS011;71254;53.010;6.508;2024-02-14T07:18:49;41.63;;;12.35;;
76332;SDS011;71254;53.010;6.508;2024-02-14T07:21:17;32.47;;;11.25;;
76332;SDS011;71254;53.010;6.508;2024-02-14T07:23:43;46.60;;;12.55;;
76332;SDS011;71254;53.010;6.508;2024-02-14T07:26:11;40.13;;;11.75;;
76332;SDS011;71254;53.010;6.508;2024-02-14T07:28:37;34.72;;;10.77;;
76332;SDS011;71254;53.010;6.508;2024-02-14T07:31:03;34.63;;;11.75;;
76332;SDS011;71254;53.010;6.508;2024-02-14T07:33:28;28.60;;;10.32;;
76332;SDS011;71254;53.010;6.508;2024-02-14T07:35:54;30.25;;;10.82;;
76332;SDS011;71254;53.010;6.508;2024-02-14T07:38:19;36.53;;;13.05;;
76332;SDS011;71254;53.010;6.508;2024-02-14T07:40:45;40.55;;;11.07;;
76332;SDS011;71254;53.010;6.508;2024-02-14T07:43:11;38.70;;;10.93;;
76332;SDS011;71254;53.010;6.508;2024-02-14T07:45:37;38.35;;;11.18;;
76332;SDS011;71254;53.010;6.508;2024-02-14T07:48:02;33.15;;;11.13;;
76332;SDS011;71254;53.010;6.508;2024-02-14T07:50:28;29.13;;;11.00;;
76332;SDS011;71254;53.010;6.508;2024-02-14T07:52:54;41.55;;;11.77;;
76332;SDS011;71254;53.010;6.508;2024-02-14T07:55:22;32.22;;;11.23;;
76332;SDS011;71254;53.010;6.508;2024-02-14T07:57:49;28.67;;;10.65;;
76332;SDS011;71254;53.010;6.508;2024-02-14T08:00:14;38.40;;;11.80;;
76332;SDS011;71254;53.010;6.508;2024-02-14T08:02:50;32.53;;;10.20;;
76332;SDS011;71254;53.010;6.508;2024-02-14T08:05:16;34.90;;;10.80;;
76332;SDS011;71254;53.010;6.508;2024-02-14T08:07:43;28.10;;;10.15;;
76332;SDS011;71254;53.010;6.508;2024-02-14T08:10:10;33.08;;;10.25;;
76332;SDS011;71254;53.010;6.508;2024-02-14T08:12:35;32.58;;;9.57;;
76332;SDS011;71254;53.010;6.508;2024-02-14T08:15:01;27.17;;;9.93;;
76332;SDS011;71254;53.010;6.508;2024-02-14T08:17:29;26.85;;;9.00;;
76332;SDS011;71254;53.010;6.508;2024-02-14T08:19:58;24.27;;;8.52;;
76332;SDS011;71254;53.010;6.508;2024-02-14T08:22:24;24.35;;;7.97;;
76332;SDS011;71254;53.010;6.508;2024-02-14T08:24:51;27.00;;;8.60;;
76332;SDS011;71254;53.010;6.508;2024-02-14T08:27:23;21.13;;;7.50;;
76332;SDS011;71254;53.010;6.508;2024-02-14T08:29:48;22.33;;;7.72;;
76332;SDS011;71254;53.010;6.508;2024-02-14T08:32:14;27.58;;;8.50;;
76332;SDS011;71254;53.010;6.508;2024-02-14T08:34:43;18.48;;;8.55;;
76332;SDS011;71254;53.010;6.508;2024-02-14T08:37:08;24.15;;;7.70;;
76332;SDS011;71254;53.010;6.508;2024-02-14T08:39:35;23.02;;;7.85;;
76332;SDS011;71254;53.010;6.508;2024-02-14T08:42:01;23.27;;;8.50;;
76332;SDS011;71254;53.010;6.508;2024-02-14T08:44:32;17.17;;;8.23;;
76332;SDS011;71254;53.010;6.508;2024-02-14T08:47:01;22.55;;;8.85;;
76332;SDS011;71254;53.010;6.508;2024-02-14T08:49:29;24.65;;;8.40;;
76332;SDS011;71254;53.010;6.508;2024-02-14T08:51:55;20.60;;;8.98;;
76332;SDS011;71254;53.010;6.508;2024-02-14T08:54:23;25.70;;;9.32;;
76332;SDS011;71254;53.010;6.508;2024-02-14T08:56:49;21.30;;;8.75;;
76332;SDS011;71254;53.010;6.508;2024-02-14T08:59:21;21.33;;;8.60;;
76332;SDS011;71254;53.010;6.508;2024-02-14T09:01:46;33.63;;;9.80;;
76332;SDS011;71254;53.010;6.508;2024-02-14T09:04:13;27.50;;;9.90;;
76332;SDS011;71254;53.010;6.508;2024-02-14T09:06:39;25.38;;;9.50;;
76332;SDS011;71254;53.010;6.508;2024-02-14T09:09:06;26.02;;;9.90;;
76332;SDS011;71254;53.010;6.508;2024-02-14T09:11:32;26.00;;;10.60;;
76332;SDS011;71254;53.010;6.508;2024-02-14T09:13:57;26.73;;;10.00;;
76332;SDS011;71254;53.010;6.508;2024-02-14T09:16:31;26.65;;;9.43;;
76332;SDS011;71254;53.010;6.508;2024-02-14T09:19:05;27.10;;;11.52;;
76332;SDS011;71254;53.010;6.508;2024-02-14T09:21:33;24.67;;;10.35;;
76332;SDS011;71254;53.010;6.508;2024-02-14T09:24:00;30.27;;;10.13;;
76332;SDS011;71254;53.010;6.508;2024-02-14T09:26:26;28.10;;;10.65;;
76332;SDS011;71254;53.010;6.508;2024-02-14T09:28:52;26.98;;;9.35;;
76332;SDS011;71254;53.010;6.508;2024-02-14T09:31:18;21.05;;;9.68;;
76332;SDS011;71254;53.010;6.508;2024-02-14T09:33:48;27.83;;;10.45;;
76332;SDS011;71254;53.010;6.508;2024-02-14T09:38:40;23.08;;;8.55;;
76332;SDS011;71254;53.010;6.508;2024-02-14T09:43:47;17.27;;;8.05;;
76332;SDS011;71254;53.010;6.508;2024-02-14T09:46:13;22.10;;;8.65;;
76332;SDS011;71254;53.010;6.508;2024-02-14T09:48:40;17.55;;;8.63;;
76332;SDS011;71254;53.010;6.508;2024-02-14T09:51:08;16.70;;;7.80;;
76332;SDS011;71254;53.010;6.508;2024-02-14T09:53:35;19.27;;;8.25;;
76332;SDS011;71254;53.010;6.508;2024-02-14T09:56:02;20.02;;;8.07;;
76332;SDS011;71254;53.010;6.508;2024-02-14T09:58:28;15.45;;;7.43;;
76332;SDS011;71254;53.010;6.508;2024-02-14T10:00:57;13.48;;;7.18;;
76332;SDS011;71254;53.010;6.508;2024-02-14T10:03:25;13.50;;;6.90;;
76332;SDS011;71254;53.010;6.508;2024-02-14T10:05:53;16.65;;;7.32;;
76332;SDS011;71254;53.010;6.508;2024-02-14T10:08:22;13.27;;;7.00;;
76332;SDS011;71254;53.010;6.508;2024-02-14T10:10:48;14.05;;;6.82;;
76332;SDS011;71254;53.010;6.508;2024-02-14T10:13:20;16.92;;;6.95;;
76332;SDS011;71254;53.010;6.508;2024-02-14T10:15:47;11.95;;;5.90;;
76332;SDS011;71254;53.010;6.508;2024-02-14T10:18:13;11.93;;;6.20;;
76332;SDS011;71254;53.010;6.508;2024-02-14T10:20:39;8.20;;;5.65;;
76332;SDS011;71254;53.010;6.508;2024-02-14T10:23:08;10.10;;;6.25;;
76332;SDS011;71254;53.010;6.508;2024-02-14T10:25:35;12.90;;;6.32;;
76332;SDS011;71254;53.010;6.508;2024-02-14T10:28:05;10.38;;;6.35;;
76332;SDS011;71254;53.010;6.508;2024-02-14T10:30:36;12.52;;;6.18;;
76332;SDS011;71254;53.010;6.508;2024-02-14T10:33:06;10.65;;;6.50;;
76332;SDS011;71254;53.010;6.508;2024-02-14T10:35:35;10.82;;;6.20;;
76332;SDS011;71254;53.010;6.508;2024-02-14T10:38:06;13.20;;;7.00;;
76332;SDS011;71254;53.010;6.508;2024-02-14T10:40:34;11.77;;;7.55;;
76332;SDS011;71254;53.010;6.508;2024-02-14T10:43:03;14.48;;;8.00;;
76332;SDS011;71254;53.010;6.508;2024-02-14T10:45:34;13.68;;;8.70;;
76332;SDS011;71254;53.010;6.508;2024-02-14T10:48:01;16.52;;;9.65;;
76332;SDS011;71254;53.010;6.508;2024-02-14T10:50:29;16.20;;;9.85;;
76332;SDS011;71254;53.010;6.508;2024-02-14T10:53:00;20.83;;;11.27;;
76332;SDS011;71254;53.010;6.508;2024-02-14T10:55:31;15.02;;;10.45;;
76332;SDS011;71254;53.010;6.508;2024-02-14T10:58:01;16.10;;;10.52;;
76332;SDS011;71254;53.010;6.508;2024-02-14T11:00:35;15.90;;;10.52;;
76332;SDS011;71254;53.010;6.508;2024-02-14T11:03:04;16.42;;;11.20;;
76332;SDS011;71254;53.010;6.508;2024-02-14T11:05:30;16.60;;;11.07;;
76332;SDS011;71254;53.010;6.508;2024-02-14T11:07:56;17.73;;;11.45;;
76332;SDS011;71254;53.010;6.508;2024-02-14T11:10:32;14.98;;;11.05;;
76332;SDS011;71254;53.010;6.508;2024-02-14T11:13:02;16.25;;;11.00;;
76332;SDS011;71254;53.010;6.508;2024-02-14T11:15:28;16.83;;;10.25;;
76332;SDS011;71254;53.010;6.508;2024-02-14T11:18:03;16.73;;;11.18;;
76332;SDS011;71254;53.010;6.508;2024-02-14T11:20:36;17.02;;;11.05;;
76332;SDS011;71254;53.010;6.508;2024-02-14T11:23:08;15.90;;;10.68;;
76332;SDS011;71254;53.010;6.508;2024-02-14T11:25:36;16.08;;;10.95;;
76332;SDS011;71254;53.010;6.508;2024-02-14T11:28:13;16.52;;;11.35;;
76332;SDS011;71254;53.010;6.508;2024-02-14T11:30:45;17.75;;;11.95;;
76332;SDS011;71254;53.010;6.508;2024-02-14T11:33:20;19.10;;;13.20;;
76332;SDS011;71254;53.010;6.508;2024-02-14T11:35:47;24.65;;;14.82;;
76332;SDS011;71254;53.010;6.508;2024-02-14T11:38:16;29.88;;;16.13;;
76332;SDS011;71254;53.010;6.508;2024-02-14T11:40:43;24.73;;;15.13;;
76332;SDS011;71254;53.010;6.508;2024-02-14T11:43:21;24.17;;;15.30;;
76332;SDS011;71254;53.010;6.508;2024-02-14T11:45:46;20.92;;;13.63;;
76332;SDS011;71254;53.010;6.508;2024-02-14T11:48:15;22.67;;;14.45;;
76332;SDS011;71254;53.010;6.508;2024-02-14T11:50:42;20.73;;;12.38;;
76332;SDS011;71254;53.010;6.508;2024-02-14T11:53:12;22.30;;;14.32;;
76332;SDS011;71254;53.010;6.508;2024-02-14T11:55:41;19.85;;;14.00;;
76332;SDS011;71254;53.010;6.508;2024-02-14T11:58:14;21.10;;;14.02;;
76332;SDS011;71254;53.010;6.508;2024-02-14T12:00:41;20.48;;;14.35;;
76332;SDS011;71254;53.010;6.508;2024-02-14T12:03:18;21.95;;;14.55;;
76332;SDS011;71254;53.010;6.508;2024-02-14T12:05:46;22.00;;;14.73;;
76332;SDS011;71254;53.010;6.508;2024-02-14T12:08:13;21.88;;;15.30;;
76332;SDS011;71254;53.010;6.508;2024-02-14T12:10:42;20.70;;;14.43;;
76332;SDS011;71254;53.010;6.508;2024-02-14T12:13:11;21.40;;;15.70;;
76332;SDS011;71254;53.010;6.508;2024-02-14T12:15:38;23.45;;;16.23;;
76332;SDS011;71254;53.010;6.508;2024-02-14T12:18:07;22.80;;;14.75;;
76332;SDS011;71254;53.010;6.508;2024-02-14T12:20:35;18.85;;;13.85;;
76332;SDS011;71254;53.010;6.508;2024-02-14T12:23:02;34.83;;;18.10;;
76332;SDS011;71254;53.010;6.508;2024-02-14T12:25:28;21.10;;;15.13;;
76332;SDS011;71254;53.010;6.508;2024-02-14T12:27:56;28.88;;;16.63;;
76332;SDS011;71254;53.010;6.508;2024-02-14T12:30:22;20.30;;;15.40;;
76332;SDS011;71254;53.010;6.508;2024-02-14T12:33:00;25.80;;;16.52;;
76332;SDS011;71254;53.010;6.508;2024-02-14T12:35:33;22.30;;;15.32;;
76332;SDS011;71254;53.010;6.508;2024-02-14T12:38:00;23.05;;;13.65;;
76332;SDS011;71254;53.010;6.508;2024-02-14T12:40:26;21.52;;;14.70;;
76332;SDS011;71254;53.010;6.508;2024-02-14T12:42:54;27.52;;;14.02;;
76332;SDS011;71254;53.010;6.508;2024-02-14T12:45:20;18.45;;;12.52;;
76332;SDS011;71254;53.010;6.508;2024-02-14T12:47:45;20.63;;;12.65;;
76332;SDS011;71254;53.010;6.508;2024-02-14T12:50:11;16.83;;;12.45;;
76332;SDS011;71254;53.010;6.508;2024-02-14T12:52:37;25.48;;;14.63;;
76332;SDS011;71254;53.010;6.508;2024-02-14T12:55:11;18.70;;;12.93;;
76332;SDS011;71254;53.010;6.508;2024-02-14T12:57:40;20.10;;;13.52;;
76332;SDS011;71254;53.010;6.508;2024-02-14T13:00:06;15.98;;;11.68;;
76332;SDS011;71254;53.010;6.508;2024-02-14T13:02:36;22.58;;;13.68;;
76332;SDS011;71254;53.010;6.508;2024-02-14T13:05:03;16.63;;;12.88;;
76332;SDS011;71254;53.010;6.508;2024-02-14T13:07:33;15.52;;;12.30;;
76332;SDS011;71254;53.010;6.508;2024-02-14T13:09:59;14.32;;;10.95;;
76332;SDS011;71254;53.010;6.508;2024-02-14T13:12:30;12.93;;;10.43;;
76332;SDS011;71254;53.010;6.508;2024-02-14T13:14:58;18.08;;;12.38;;
76332;SDS011;71254;53.010;6.508;2024-02-14T13:17:27;16.63;;;12.70;;
76332;SDS011;71254;53.010;6.508;2024-02-14T13:19:54;15.77;;;12.73;;
76332;SDS011;71254;53.010;6.508;2024-02-14T13:22:19;17.55;;;13.18;;
76332;SDS011;71254;53.010;6.508;2024-02-14T13:24:45;17.77;;;13.43;;
76332;SDS011;71254;53.010;6.508;2024-02-14T13:27:11;21.20;;;14.10;;
76332;SDS011;71254;53.010;6.508;2024-02-14T13:29:36;19.33;;;14.75;;
76332;SDS011;71254;53.010;6.508;2024-02-14T13:32:03;19.50;;;14.35;;
76332;SDS011;71254;53.010;6.508;2024-02-14T13:34:42;21.42;;;16.48;;
76332;SDS011;71254;53.010;6.508;2024-02-14T13:37:10;23.05;;;16.10;;
76332;SDS011;71254;53.010;6.508;2024-02-14T13:39:40;23.58;;;17.38;;
76332;SDS011;71254;53.010;6.508;2024-02-14T13:42:06;23.77;;;17.50;;
76332;SDS011;71254;53.010;6.508;2024-02-14T13:44:33;27.85;;;18.40;;
76332;SDS011;71254;53.010;6.508;2024-02-14T13:46:58;26.75;;;18.20;;
76332;SDS011;71254;53.010;6.508;2024-02-14T13:49:24;25.60;;;18.10;;
76332;SDS011;71254;53.010;6.508;2024-02-14T13:51:53;26.08;;;17.73;;
76332;SDS011;71254;53.010;6.508;2024-02-14T13:54:19;24.77;;;17.85;;
76332;SDS011;71254;53.010;6.508;2024-02-14T13:56:45;27.75;;;18.38;;
76332;SDS011;71254;53.010;6.508;2024-02-14T13:59:13;22.48;;;15.52;;
76332;SDS011;71254;53.010;6.508;2024-02-14T14:01:39;24.05;;;15.32;;
76332;SDS011;71254;53.010;6.508;2024-02-14T14:04:04;20.30;;;15.02;;
76332;SDS011;71254;53.010;6.508;2024-02-14T14:06:30;18.23;;;13.82;;
76332;SDS011;71254;53.010;6.508;2024-02-14T14:08:56;21.48;;;14.23;;
76332;SDS011;71254;53.010;6.508;2024-02-14T14:11:22;17.92;;;13.32;;
76332;SDS011;71254;53.010;6.508;2024-02-14T14:13:48;15.30;;;11.95;;
76332;SDS011;71254;53.010;6.508;2024-02-14T14:16:14;19.60;;;13.55;;
76332;SDS011;71254;53.010;6.508;2024-02-14T14:18:40;20.60;;;12.63;;
76332;SDS011;71254;53.010;6.508;2024-02-14T14:21:08;17.15;;;11.43;;
76332;SDS011;71254;53.010;6.508;2024-02-14T14:23:36;15.70;;;11.48;;
76332;SDS011;71254;53.010;6.508;2024-02-14T14:26:02;15.57;;;11.15;;
76332;SDS011;71254;53.010;6.508;2024-02-14T14:28:27;17.00;;;11.30;;
76332;SDS011;71254;53.010;6.508;2024-02-14T14:30:53;16.23;;;11.00;;
76332;SDS011;71254;53.010;6.508;2024-02-14T14:33:20;15.13;;;11.00;;
76332;SDS011;71254;53.010;6.508;2024-02-14T14:35:46;16.92;;;10.90;;
76332;SDS011;71254;53.010;6.508;2024-02-14T14:38:14;13.75;;;10.10;;